Tyndall Air Force Base
KPAM : now visible

Airfield :











YOU CAN JOIN US ON...

 
LOGIN :

Register | Disclaimer

   EN    FR    IT 

 









Legend :    VFR   Marginal VFR   IFR   Intensive IFR   Very Intensive IFR
Visi :
Ceiling :
>= 8 km
>= 3000ft
5 to 8 km
1000 to 3000 ft
1500m to 5 km
500 to 1000 ft
800 to 1500m
200 to 500 ft
< 800m
< 200 ft
Symbols :   Thunderstorms  Fog  Heavy snow  Heavy precipitations  Wind > 20 kt






- Airport Elevation : 17 ft


KPAM - Tyndall Air Force Base

CURRENT METAR :
  • 170256Z AUTO 36012G18KT 10SM CLR 19/11 A3008 RMK AO2 SLP189 T01860107 52024 $

EXPIRED METARs :
  • 170156Z AUTO 35010KT 10SM CLR 20/12 A3006 RMK AO2 SLP182 T01950120 $
  • 170056Z AUTO 35011KT 10SM CLR 21/12 A3003 RMK AO2 SLP172 T02050122 $

TAF AMD TAF KPAM
Valid from the 16 at 03:00 until the 17 at 04:00 UTC


160326Z 1603/1704 22009KT 9999 FEW020 QNH2991INS
BECMG 1607/1608 26003KT 6000 BR SCT020 QNH2990INS
BECMG 1613/1614 33009KT 9000 -SHRA BKN025 QNH2991INS
TEMPO 1614/1618 30012G18KT 6000 TSRA BKN020CB
BECMG 1617/1618 33015G21KT 9999 NSW FEW030 QNH2994INS TX29/1622Z TN21/1611Z LAST NO AMDS AFT 1603 NEXT 1811
KZJX FIR / North America



MET'MAP, your aeronautical weather chart ! - Copyright ORBIFLY December 2007 - Disclaimer

ORBIFLY MET'MAP TEAM :

Programming & Development : Alexandra Zaïnal
Concept & original design : Baudouin d'Aumeries
Assistance for programming : Marc-Olivier Méhu
Technical & hardware support : Manuel Goepfert

Contact : metmap@orbifly.com




SOURCES & CREDITS :

   NOAA       Earth
Advisory